sensor_id;sensor_type;location;lat;lon;timestamp;temperature;humidity
49236;DHT22;35067;48.134;8.378;2022-11-15T00:00:25;5.50;99.90
49236;DHT22;35067;48.134;8.378;2022-11-15T00:02:26;5.40;99.90
49236;DHT22;35067;48.134;8.378;2022-11-15T00:04:26;5.40;99.90
49236;DHT22;35067;48.134;8.378;2022-11-15T00:06:27;5.40;99.90
49236;DHT22;35067;48.134;8.378;2022-11-15T00:08:32;5.40;99.90
49236;DHT22;35067;48.134;8.378;2022-11-15T00:10:32;5.50;99.90
49236;DHT22;35067;48.134;8.378;2022-11-15T00:12:33;5.50;99.90
49236;DHT22;35067;48.134;8.378;2022-11-15T00:14:34;5.50;99.90
49236;DHT22;35067;48.134;8.378;2022-11-15T00:16:35;5.50;99.90
49236;DHT22;35067;48.134;8.378;2022-11-15T00:18:35;5.50;99.90
49236;DHT22;35067;48.134;8.378;2022-11-15T00:20:36;5.50;99.90
49236;DHT22;35067;48.134;8.378;2022-11-15T00:22:37;5.50;99.90
49236;DHT22;35067;48.134;8.378;2022-11-15T00:24:38;5.50;99.90
49236;DHT22;35067;48.134;8.378;2022-11-15T00:26:38;5.50;99.90
49236;DHT22;35067;48.134;8.378;2022-11-15T00:28:40;5.40;99.90
49236;DHT22;35067;48.134;8.378;2022-11-15T00:30:41;5.50;99.90
49236;DHT22;35067;48.134;8.378;2022-11-15T00:32:42;5.50;99.90
49236;DHT22;35067;48.134;8.378;2022-11-15T00:34:42;5.40;99.90
49236;DHT22;35067;48.134;8.378;2022-11-15T00:36:43;5.50;99.90
49236;DHT22;35067;48.134;8.378;2022-11-15T00:38:44;5.50;99.90
49236;DHT22;35067;48.134;8.378;2022-11-15T00:40:44;5.60;99.90
49236;DHT22;35067;48.134;8.378;2022-11-15T00:42:45;5.50;99.90
49236;DHT22;35067;48.134;8.378;2022-11-15T00:44:46;5.50;99.90
49236;DHT22;35067;48.134;8.378;2022-11-15T00:46:47;5.60;99.90
49236;DHT22;35067;48.134;8.378;2022-11-15T00:48:47;5.60;99.90
49236;DHT22;35067;48.134;8.378;2022-11-15T00:50:49;5.60;99.90
49236;DHT22;35067;48.134;8.378;2022-11-15T00:52:49;5.60;99.90
49236;DHT22;35067;48.134;8.378;2022-11-15T00:54:50;5.60;99.90
49236;DHT22;35067;48.134;8.378;2022-11-15T00:56:51;5.50;99.90
49236;DHT22;35067;48.134;8.378;2022-11-15T00:58:52;5.40;99.90
49236;DHT22;35067;48.134;8.378;2022-11-15T01:00:53;5.40;99.90
49236;DHT22;35067;48.134;8.378;2022-11-15T01:02:55;5.50;99.90
49236;DHT22;35067;48.134;8.378;2022-11-15T01:04:55;5.40;99.90
49236;DHT22;35067;48.134;8.378;2022-11-15T01:06:56;5.30;99.90
49236;DHT22;35067;48.134;8.378;2022-11-15T01:08:57;5.30;99.90
49236;DHT22;35067;48.134;8.378;2022-11-15T01:11:06;5.20;99.90
49236;DHT22;35067;48.134;8.378;2022-11-15T01:13:08;5.20;99.90
49236;DHT22;35067;48.134;8.378;2022-11-15T01:15:09;5.10;99.90
49236;DHT22;35067;48.134;8.378;2022-11-15T01:17:10;5.00;99.90
49236;DHT22;35067;48.134;8.378;2022-11-15T01:19:10;5.00;99.90
49236;DHT22;35067;48.134;8.378;2022-11-15T01:21:18;5.00;99.90
49236;DHT22;35067;48.134;8.378;2022-11-15T01:23:19;5.00;99.90
49236;DHT22;35067;48.134;8.378;2022-11-15T01:25:20;5.10;99.90
49236;DHT22;35067;48.134;8.378;2022-11-15T01:27:21;5.00;99.90
49236;DHT22;35067;48.134;8.378;2022-11-15T01:29:22;5.10;99.90
49236;DHT22;35067;48.134;8.378;2022-11-15T01:31:22;5.20;99.90
49236;DHT22;35067;48.134;8.378;2022-11-15T01:33:23;5.20;99.90
49236;DHT22;35067;48.134;8.378;2022-11-15T01:35:24;5.30;99.90
49236;DHT22;35067;48.134;8.378;2022-11-15T01:37:24;5.40;99.90
49236;DHT22;35067;48.134;8.378;2022-11-15T01:39:25;5.50;99.90
49236;DHT22;35067;48.134;8.378;2022-11-15T01:41:29;5.50;99.90
49236;DHT22;35067;48.134;8.378;2022-11-15T01:43:35;5.50;99.90
49236;DHT22;35067;48.134;8.378;2022-11-15T01:45:37;5.60;99.90
49236;DHT22;35067;48.134;8.378;2022-11-15T01:47:47;5.50;99.90
49236;DHT22;35067;48.134;8.378;2022-11-15T01:49:57;5.50;99.90
49236;DHT22;35067;48.134;8.378;2022-11-15T01:52:08;5.40;99.90
49236;DHT22;35067;48.134;8.378;2022-11-15T01:54:15;5.50;99.90
49236;DHT22;35067;48.134;8.378;2022-11-15T01:56:21;5.40;99.90
49236;DHT22;35067;48.134;8.378;2022-11-15T01:58:24;5.40;99.90
49236;DHT22;35067;48.134;8.378;2022-11-15T02:00:25;5.40;99.90
49236;DHT22;35067;48.134;8.378;2022-11-15T02:02:25;5.50;99.90
49236;DHT22;35067;48.134;8.378;2022-11-15T02:04:28;5.70;99.90
49236;DHT22;35067;48.134;8.378;2022-11-15T02:06:30;5.80;99.90
49236;DHT22;35067;48.134;8.378;2022-11-15T02:08:31;5.90;99.90
49236;DHT22;35067;48.134;8.378;2022-11-15T02:10:32;6.00;99.90
49236;DHT22;35067;48.134;8.378;2022-11-15T02:12:33;6.10;99.90
49236;DHT22;35067;48.134;8.378;2022-11-15T02:14:34;6.10;99.90
49236;DHT22;35067;48.134;8.378;2022-11-15T02:21:59;5.90;99.90
49236;DHT22;35067;48.134;8.378;2022-11-15T02:24:27;5.70;99.90
49236;DHT22;35067;48.134;8.378;2022-11-15T02:31:43;6.10;99.90
49236;DHT22;35067;48.134;8.378;2022-11-15T02:34:08;6.50;99.90
49236;DHT22;35067;48.134;8.378;2022-11-15T02:38:58;6.90;99.90
49236;DHT22;35067;48.134;8.378;2022-11-15T02:41:28;7.10;99.90
49236;DHT22;35067;48.134;8.378;2022-11-15T02:43:40;7.20;99.90
49236;DHT22;35067;48.134;8.378;2022-11-15T02:46:14;7.30;99.90
49236;DHT22;35067;48.134;8.378;2022-11-15T02:48:20;7.30;99.90
49236;DHT22;35067;48.134;8.378;2022-11-15T02:50:25;7.40;99.90
49236;DHT22;35067;48.134;8.378;2022-11-15T02:52:27;7.30;99.90
49236;DHT22;35067;48.134;8.378;2022-11-15T02:54:30;7.40;99.90
49236;DHT22;35067;48.134;8.378;2022-11-15T02:56:33;7.50;99.90
49236;DHT22;35067;48.134;8.378;2022-11-15T03:01:13;7.20;99.90
49236;DHT22;35067;48.134;8.378;2022-11-15T03:03:32;7.10;99.90
49236;DHT22;35067;48.134;8.378;2022-11-15T03:08:14;6.60;99.90
49236;DHT22;35067;48.134;8.378;2022-11-15T03:10:36;6.60;99.90
49236;DHT22;35067;48.134;8.378;2022-11-15T03:12:55;6.60;99.90
49236;DHT22;35067;48.134;8.378;2022-11-15T03:15:04;6.50;99.90
49236;DHT22;35067;48.134;8.378;2022-11-15T03:17:23;6.50;99.90
49236;DHT22;35067;48.134;8.378;2022-11-15T03:19:37;6.40;99.90
49236;DHT22;35067;48.134;8.378;2022-11-15T03:21:49;6.30;99.90
49236;DHT22;35067;48.134;8.378;2022-11-15T03:23:52;6.20;99.90
49236;DHT22;35067;48.134;8.378;2022-11-15T03:25:55;6.20;99.90
49236;DHT22;35067;48.134;8.378;2022-11-15T03:27:58;6.10;99.90
49236;DHT22;35067;48.134;8.378;2022-11-15T03:30:06;6.20;99.90
49236;DHT22;35067;48.134;8.378;2022-11-15T03:32:22;6.20;99.90
49236;DHT22;35067;48.134;8.378;2022-11-15T03:34:27;6.20;99.90
49236;DHT22;35067;48.134;8.378;2022-11-15T03:36:32;6.20;99.90
49236;DHT22;35067;48.134;8.378;2022-11-15T03:38:34;6.20;99.90
49236;DHT22;35067;48.134;8.378;2022-11-15T03:40:39;6.30;99.90
49236;DHT22;35067;48.134;8.378;2022-11-15T03:42:48;6.40;99.90
49236;DHT22;35067;48.134;8.378;2022-11-15T03:47:34;6.60;99.90
49236;DHT22;35067;48.134;8.378;2022-11-15T03:49:42;6.60;99.90
49236;DHT22;35067;48.134;8.378;2022-11-15T03:51:45;6.70;99.90
49236;DHT22;35067;48.134;8.378;2022-11-15T03:53:46;6.70;99.90
49236;DHT22;35067;48.134;8.378;2022-11-15T03:55:47;6.70;99.90
49236;DHT22;35067;48.134;8.378;2022-11-15T03:57:50;6.60;99.90
49236;DHT22;35067;48.134;8.378;2022-11-15T03:59:54;6.60;99.90
49236;DHT22;35067;48.134;8.378;2022-11-15T04:01:55;6.60;99.90
49236;DHT22;35067;48.134;8.378;2022-11-15T04:03:55;6.80;99.90
49236;DHT22;35067;48.134;8.378;2022-11-15T04:05:56;6.90;99.90
49236;DHT22;35067;48.134;8.378;2022-11-15T04:07:57;7.00;99.90
49236;DHT22;35067;48.134;8.378;2022-11-15T04:09:57;7.20;99.90
49236;DHT22;35067;48.134;8.378;2022-11-15T04:12:05;7.40;99.90
49236;DHT22;35067;48.134;8.378;2022-11-15T04:14:06;7.70;99.90
49236;DHT22;35067;48.134;8.378;2022-11-15T04:16:06;7.90;99.90
49236;DHT22;35067;48.134;8.378;2022-11-15T04:18:07;8.10;99.90
49236;DHT22;35067;48.134;8.378;2022-11-15T04:22:44;8.10;99.90
49236;DHT22;35067;48.134;8.378;2022-11-15T04:25:03;7.80;99.90
49236;DHT22;35067;48.134;8.378;2022-11-15T04:27:04;7.60;99.90
49236;DHT22;35067;48.134;8.378;2022-11-15T04:29:04;7.50;99.90
49236;DHT22;35067;48.134;8.378;2022-11-15T04:31:24;7.60;99.90
49236;DHT22;35067;48.134;8.378;2022-11-15T04:33:25;7.60;99.90
49236;DHT22;35067;48.134;8.378;2022-11-15T04:35:25;7.70;99.90
49236;DHT22;35067;48.134;8.378;2022-11-15T04:37:26;7.90;99.90
49236;DHT22;35067;48.134;8.378;2022-11-15T04:39:27;8.10;99.90
49236;DHT22;35067;48.134;8.378;2022-11-15T04:41:27;8.20;99.90
49236;DHT22;35067;48.134;8.378;2022-11-15T04:43:29;8.30;99.90
49236;DHT22;35067;48.134;8.378;2022-11-15T04:45:30;8.30;99.90
49236;DHT22;35067;48.134;8.378;2022-11-15T04:47:31;8.60;99.90
49236;DHT22;35067;48.134;8.378;2022-11-15T04:49:31;8.60;99.90
49236;DHT22;35067;48.134;8.378;2022-11-15T04:51:32;8.80;99.90
49236;DHT22;35067;48.134;8.378;2022-11-15T04:53:33;8.80;99.90
49236;DHT22;35067;48.134;8.378;2022-11-15T04:55:33;8.90;99.90
49236;DHT22;35067;48.134;8.378;2022-11-15T04:57:34;8.80;99.90
49236;DHT22;35067;48.134;8.378;2022-11-15T04:59:35;8.80;99.90
49236;DHT22;35067;48.134;8.378;2022-11-15T05:01:36;8.70;99.90
49236;DHT22;35067;48.134;8.378;2022-11-15T05:03:36;8.60;99.90
49236;DHT22;35067;48.134;8.378;2022-11-15T05:05:57;8.40;99.90
49236;DHT22;35067;48.134;8.378;2022-11-15T05:07:58;8.20;99.90
49236;DHT22;35067;48.134;8.378;2022-11-15T05:09:59;8.00;99.90
49236;DHT22;35067;48.134;8.378;2022-11-15T05:11:59;7.80;99.90
49236;DHT22;35067;48.134;8.378;2022-11-15T05:14:00;7.70;99.90
49236;DHT22;35067;48.134;8.378;2022-11-15T05:16:01;7.70;99.90
49236;DHT22;35067;48.134;8.378;2022-11-15T05:18:01;7.70;99.90
49236;DHT22;35067;48.134;8.378;2022-11-15T05:20:02;7.60;99.90
49236;DHT22;35067;48.134;8.378;2022-11-15T05:22:03;7.60;99.90
49236;DHT22;35067;48.134;8.378;2022-11-15T05:24:04;7.70;99.90
49236;DHT22;35067;48.134;8.378;2022-11-15T05:26:08;7.80;99.90
49236;DHT22;35067;48.134;8.378;2022-11-15T05:28:09;7.80;99.90
49236;DHT22;35067;48.134;8.378;2022-11-15T05:30:10;7.80;99.90
49236;DHT22;35067;48.134;8.378;2022-11-15T05:32:12;7.90;99.90
49236;DHT22;35067;48.134;8.378;2022-11-15T05:34:13;7.90;99.90
49236;DHT22;35067;48.134;8.378;2022-11-15T05:38:42;8.00;99.90
49236;DHT22;35067;48.134;8.378;2022-11-15T05:40:43;8.10;99.90
49236;DHT22;35067;48.134;8.378;2022-11-15T05:42:45;8.10;99.90
49236;DHT22;35067;48.134;8.378;2022-11-15T05:44:48;8.10;99.90
49236;DHT22;35067;48.134;8.378;2022-11-15T05:46:51;8.10;99.90
49236;DHT22;35067;48.134;8.378;2022-11-15T05:48:54;8.10;99.90
49236;DHT22;35067;48.134;8.378;2022-11-15T05:50:56;8.00;99.90
49236;DHT22;35067;48.134;8.378;2022-11-15T05:52:57;7.90;99.90
49236;DHT22;35067;48.134;8.378;2022-11-15T05:54:58;7.90;99.90
49236;DHT22;35067;48.134;8.378;2022-11-15T05:56:59;8.00;99.90
49236;DHT22;35067;48.134;8.378;2022-11-15T05:59:00;8.00;99.90
49236;DHT22;35067;48.134;8.378;2022-11-15T06:01:01;7.80;99.90
49236;DHT22;35067;48.134;8.378;2022-11-15T06:03:02;7.80;99.90
49236;DHT22;35067;48.134;8.378;2022-11-15T06:05:03;7.90;99.90
49236;DHT22;35067;48.134;8.378;2022-11-15T06:07:04;8.00;99.90
49236;DHT22;35067;48.134;8.378;2022-11-15T06:09:05;8.10;99.90
49236;DHT22;35067;48.134;8.378;2022-11-15T06:11:06;8.20;99.90
49236;DHT22;35067;48.134;8.378;2022-11-15T06:13:07;8.20;99.90
49236;DHT22;35067;48.134;8.378;2022-11-15T06:15:08;8.20;99.90
49236;DHT22;35067;48.134;8.378;2022-11-15T06:17:09;8.40;99.90
49236;DHT22;35067;48.134;8.378;2022-11-15T06:19:09;8.40;99.90
49236;DHT22;35067;48.134;8.378;2022-11-15T06:21:10;8.30;99.90
49236;DHT22;35067;48.134;8.378;2022-11-15T06:23:11;8.20;99.90
49236;DHT22;35067;48.134;8.378;2022-11-15T06:25:12;8.20;99.90
49236;DHT22;35067;48.134;8.378;2022-11-15T06:27:12;8.20;99.90
49236;DHT22;35067;48.134;8.378;2022-11-15T06:29:13;8.40;99.90
49236;DHT22;35067;48.134;8.378;2022-11-15T06:31:14;8.40;99.90
49236;DHT22;35067;48.134;8.378;2022-11-15T06:33:14;8.40;99.90
49236;DHT22;35067;48.134;8.378;2022-11-15T06:35:15;8.40;99.90
49236;DHT22;35067;48.134;8.378;2022-11-15T06:37:16;8.40;99.90
49236;DHT22;35067;48.134;8.378;2022-11-15T06:39:17;8.30;99.90
49236;DHT22;35067;48.134;8.378;2022-11-15T06:41:17;8.40;99.90
49236;DHT22;35067;48.134;8.378;2022-11-15T06:43:18;8.40;99.90
49236;DHT22;35067;48.134;8.378;2022-11-15T06:45:19;8.40;99.90
49236;DHT22;35067;48.134;8.378;2022-11-15T06:47:19;8.40;99.90
49236;DHT22;35067;48.134;8.378;2022-11-15T06:49:20;8.30;99.90
49236;DHT22;35067;48.134;8.378;2022-11-15T06:51:21;8.30;99.90
49236;DHT22;35067;48.134;8.378;2022-11-15T06:53:22;8.30;99.90
49236;DHT22;35067;48.134;8.378;2022-11-15T06:55:23;8.30;99.90
49236;DHT22;35067;48.134;8.378;2022-11-15T06:57:24;8.20;99.90
49236;DHT22;35067;48.134;8.378;2022-11-15T06:59:24;8.20;99.90
49236;DHT22;35067;48.134;8.378;2022-11-15T07:01:25;8.10;99.90
49236;DHT22;35067;48.134;8.378;2022-11-15T07:03:26;8.10;99.90
49236;DHT22;35067;48.134;8.378;2022-11-15T07:05:27;8.20;99.90
49236;DHT22;35067;48.134;8.378;2022-11-15T07:07:28;8.00;99.90
49236;DHT22;35067;48.134;8.378;2022-11-15T07:09:28;7.90;99.90
49236;DHT22;35067;48.134;8.378;2022-11-15T07:11:29;7.80;99.90
49236;DHT22;35067;48.134;8.378;2022-11-15T07:13:31;7.70;99.90
49236;DHT22;35067;48.134;8.378;2022-11-15T07:15:36;7.60;99.90
49236;DHT22;35067;48.134;8.378;2022-11-15T07:17:36;7.60;99.90
49236;DHT22;35067;48.134;8.378;2022-11-15T07:19:37;7.70;99.90
49236;DHT22;35067;48.134;8.378;2022-11-15T07:21:38;7.80;99.90
49236;DHT22;35067;48.134;8.378;2022-11-15T07:23:39;7.90;99.90
49236;DHT22;35067;48.134;8.378;2022-11-15T07:25:40;8.00;99.90
49236;DHT22;35067;48.134;8.378;2022-11-15T07:27:40;8.10;99.90
49236;DHT22;35067;48.134;8.378;2022-11-15T07:29:41;8.20;99.90
49236;DHT22;35067;48.134;8.378;2022-11-15T07:31:42;8.40;99.90
49236;DHT22;35067;48.134;8.378;2022-11-15T07:33:42;8.40;99.90
49236;DHT22;35067;48.134;8.378;2022-11-15T07:35:43;8.50;99.90
49236;DHT22;35067;48.134;8.378;2022-11-15T07:37:56;8.60;99.90
49236;DHT22;35067;48.134;8.378;2022-11-15T07:39:58;8.50;99.90
49236;DHT22;35067;48.134;8.378;2022-11-15T07:41:59;8.60;99.90
49236;DHT22;35067;48.134;8.378;2022-11-15T07:44:18;8.60;99.90
49236;DHT22;35067;48.134;8.378;2022-11-15T07:46:19;8.70;99.90
49236;DHT22;35067;48.134;8.378;2022-11-15T07:48:19;8.80;99.90
49236;DHT22;35067;48.134;8.378;2022-11-15T07:50:20;8.80;99.90
49236;DHT22;35067;48.134;8.378;2022-11-15T07:52:21;8.80;99.90
49236;DHT22;35067;48.134;8.378;2022-11-15T07:54:22;8.90;99.90
49236;DHT22;35067;48.134;8.378;2022-11-15T07:56:22;9.10;99.90
49236;DHT22;35067;48.134;8.378;2022-11-15T07:58:23;9.20;99.90
49236;DHT22;35067;48.134;8.378;2022-11-15T08:00:24;9.30;99.90
49236;DHT22;35067;48.134;8.378;2022-11-15T08:02:24;9.30;99.90
49236;DHT22;35067;48.134;8.378;2022-11-15T08:04:25;9.50;99.90
49236;DHT22;35067;48.134;8.378;2022-11-15T08:06:26;9.60;99.90
49236;DHT22;35067;48.134;8.378;2022-11-15T08:08:26;9.70;99.90
49236;DHT22;35067;48.134;8.378;2022-11-15T08:10:28;9.70;99.90
49236;DHT22;35067;48.134;8.378;2022-11-15T08:12:29;9.60;99.90
49236;DHT22;35067;48.134;8.378;2022-11-15T08:14:29;9.40;99.90
49236;DHT22;35067;48.134;8.378;2022-11-15T08:16:30;9.30;99.90
49236;DHT22;35067;48.134;8.378;2022-11-15T08:18:31;9.40;99.90
49236;DHT22;35067;48.134;8.378;2022-11-15T08:20:32;9.60;99.90
49236;DHT22;35067;48.134;8.378;2022-11-15T08:22:34;9.80;99.90
49236;DHT22;35067;48.134;8.378;2022-11-15T08:24:35;9.90;99.90
49236;DHT22;35067;48.134;8.378;2022-11-15T08:26:35;10.10;99.90
49236;DHT22;35067;48.134;8.378;2022-11-15T08:28:36;10.20;99.90
49236;DHT22;35067;48.134;8.378;2022-11-15T08:30:39;10.40;99.90
49236;DHT22;35067;48.134;8.378;2022-11-15T08:32:42;10.60;99.60
49236;DHT22;35067;48.134;8.378;2022-11-15T08:34:42;10.50;99.40
49236;DHT22;35067;48.134;8.378;2022-11-15T08:36:43;10.20;99.90
49236;DHT22;35067;48.134;8.378;2022-11-15T08:38:44;10.30;99.90
49236;DHT22;35067;48.134;8.378;2022-11-15T08:40:45;10.50;99.80
49236;DHT22;35067;48.134;8.378;2022-11-15T08:42:46;10.60;99.60
49236;DHT22;35067;48.134;8.378;2022-11-15T08:44:47;10.80;99.50
49236;DHT22;35067;48.134;8.378;2022-11-15T08:46:48;10.80;98.50
49236;DHT22;35067;48.134;8.378;2022-11-15T08:48:48;10.80;98.50
49236;DHT22;35067;48.134;8.378;2022-11-15T08:50:54;10.90;98.10
49236;DHT22;35067;48.134;8.378;2022-11-15T08:52:55;10.90;97.90
49236;DHT22;35067;48.134;8.378;2022-11-15T08:54:56;11.00;98.10
49236;DHT22;35067;48.134;8.378;2022-11-15T08:56:57;11.00;97.70
49236;DHT22;35067;48.134;8.378;2022-11-15T08:58:57;11.00;98.30
49236;DHT22;35067;48.134;8.378;2022-11-15T09:00:58;11.00;97.90
49236;DHT22;35067;48.134;8.378;2022-11-15T09:02:59;11.00;98.10
49236;DHT22;35067;48.134;8.378;2022-11-15T09:05:00;11.10;98.00
49236;DHT22;35067;48.134;8.378;2022-11-15T09:07:00;11.10;98.00
49236;DHT22;35067;48.134;8.378;2022-11-15T09:09:02;11.30;97.60
49236;DHT22;35067;48.134;8.378;2022-11-15T09:11:04;11.50;96.70
49236;DHT22;35067;48.134;8.378;2022-11-15T09:13:06;11.50;96.80
49236;DHT22;35067;48.134;8.378;2022-11-15T09:15:07;11.70;96.30
49236;DHT22;35067;48.134;8.378;2022-11-15T09:17:08;12.00;96.00
49236;DHT22;35067;48.134;8.378;2022-11-15T09:19:09;12.20;94.90
49236;DHT22;35067;48.134;8.378;2022-11-15T09:21:10;12.40;94.40
49236;DHT22;35067;48.134;8.378;2022-11-15T09:23:11;12.60;93.70
49236;DHT22;35067;48.134;8.378;2022-11-15T09:25:12;12.70;93.40
49236;DHT22;35067;48.134;8.378;2022-11-15T09:27:12;12.90;93.00
49236;DHT22;35067;48.134;8.378;2022-11-15T09:29:14;12.90;93.60
49236;DHT22;35067;48.134;8.378;2022-11-15T09:31:15;12.80;92.80
49236;DHT22;35067;48.134;8.378;2022-11-15T09:33:17;12.80;93.10
49236;DHT22;35067;48.134;8.378;2022-11-15T09:35:18;12.50;93.80
49236;DHT22;35067;48.134;8.378;2022-11-15T09:37:18;12.50;93.90
49236;DHT22;35067;48.134;8.378;2022-11-15T09:39:19;12.50;94.40
49236;DHT22;35067;48.134;8.378;2022-11-15T09:44:18;12.80;94.00
49236;DHT22;35067;48.134;8.378;2022-11-15T09:48:51;12.80;95.20
49236;DHT22;35067;48.134;8.378;2022-11-15T09:50:53;12.40;96.10
49236;DHT22;35067;48.134;8.378;2022-11-15T09:53:00;12.40;95.80
49236;DHT22;35067;48.134;8.378;2022-11-15T09:55:01;12.50;95.30
49236;DHT22;35067;48.134;8.378;2022-11-15T09:57:11;12.70;95.10
49236;DHT22;35067;48.134;8.378;2022-11-15T10:04:08;12.60;93.10
49236;DHT22;35067;48.134;8.378;2022-11-15T10:06:21;12.60;92.20
49236;DHT22;35067;48.134;8.378;2022-11-15T10:11:03;12.30;93.80
49236;DHT22;35067;48.134;8.378;2022-11-15T10:13:18;12.40;94.00
49236;DHT22;35067;48.134;8.378;2022-11-15T10:15:21;12.60;91.60
49236;DHT22;35067;48.134;8.378;2022-11-15T10:24:34;12.90;90.20
49236;DHT22;35067;48.134;8.378;2022-11-15T10:26:38;12.90;90.30
49236;DHT22;35067;48.134;8.378;2022-11-15T10:28:38;13.00;88.70
49236;DHT22;35067;48.134;8.378;2022-11-15T10:30:43;13.00;84.50
49236;DHT22;35067;48.134;8.378;2022-11-15T10:32:45;12.90;85.40
49236;DHT22;35067;48.134;8.378;2022-11-15T10:34:48;13.00;86.00
49236;DHT22;35067;48.134;8.378;2022-11-15T10:36:58;13.00;85.20
49236;DHT22;35067;48.134;8.378;2022-11-15T10:39:00;13.10;83.50
49236;DHT22;35067;48.134;8.378;2022-11-15T10:41:07;13.00;84.80
49236;DHT22;35067;48.134;8.378;2022-11-15T10:43:18;12.80;85.40
49236;DHT22;35067;48.134;8.378;2022-11-15T10:45:28;12.90;86.30
49236;DHT22;35067;48.134;8.378;2022-11-15T10:47:31;13.00;82.90
49236;DHT22;35067;48.134;8.378;2022-11-15T10:49:33;13.00;83.50
49236;DHT22;35067;48.134;8.378;2022-11-15T10:51:50;12.90;82.30
49236;DHT22;35067;48.134;8.378;2022-11-15T10:53:53;12.80;83.10
49236;DHT22;35067;48.134;8.378;2022-11-15T10:55:59;12.60;84.80
49236;DHT22;35067;48.134;8.378;2022-11-15T10:58:06;12.70;81.80
49236;DHT22;35067;48.134;8.378;2022-11-15T11:00:39;12.80;84.90
49236;DHT22;35067;48.134;8.378;2022-11-15T11:05:40;13.30;81.70
49236;DHT22;35067;48.134;8.378;2022-11-15T11:07:40;13.50;77.30
49236;DHT22;35067;48.134;8.378;2022-11-15T11:09:41;13.40;78.50
49236;DHT22;35067;48.134;8.378;2022-11-15T11:11:51;13.60;76.90
49236;DHT22;35067;48.134;8.378;2022-11-15T11:13:52;13.60;78.30
49236;DHT22;35067;48.134;8.378;2022-11-15T11:18:31;13.60;76.30
49236;DHT22;35067;48.134;8.378;2022-11-15T11:20:41;13.70;76.60
49236;DHT22;35067;48.134;8.378;2022-11-15T11:30:12;13.60;77.50
49236;DHT22;35067;48.134;8.378;2022-11-15T11:39:06;13.10;81.40
49236;DHT22;35067;48.134;8.378;2022-11-15T11:48:46;12.40;87.30
49236;DHT22;35067;48.134;8.378;2022-11-15T11:50:49;12.30;88.80
49236;DHT22;35067;48.134;8.378;2022-11-15T11:52:57;12.10;88.90
49236;DHT22;35067;48.134;8.378;2022-11-15T11:59:48;11.90;90.80
49236;DHT22;35067;48.134;8.378;2022-11-15T12:01:54;11.90;91.90
49236;DHT22;35067;48.134;8.378;2022-11-15T12:03:59;11.90;92.40
49236;DHT22;35067;48.134;8.378;2022-11-15T12:09:14;12.20;90.70
49236;DHT22;35067;48.134;8.378;2022-11-15T12:13:56;12.40;92.30
49236;DHT22;35067;48.134;8.378;2022-11-15T12:16:10;12.40;90.50
49236;DHT22;35067;48.134;8.378;2022-11-15T12:18:16;12.30;90.50
49236;DHT22;35067;48.134;8.378;2022-11-15T12:20:34;12.40;90.40
49236;DHT22;35067;48.134;8.378;2022-11-15T12:22:52;12.30;91.10
49236;DHT22;35067;48.134;8.378;2022-11-15T12:25:03;12.30;89.30
49236;DHT22;35067;48.134;8.378;2022-11-15T12:29:46;12.50;91.90
49236;DHT22;35067;48.134;8.378;2022-11-15T12:31:52;12.60;93.70
49236;DHT22;35067;48.134;8.378;2022-11-15T12:33:57;12.60;94.40
49236;DHT22;35067;48.134;8.378;2022-11-15T12:38:57;12.80;93.10
49236;DHT22;35067;48.134;8.378;2022-11-15T12:41:14;12.70;92.90
49236;DHT22;35067;48.134;8.378;2022-11-15T12:45:35;12.50;93.40
49236;DHT22;35067;48.134;8.378;2022-11-15T12:47:37;12.60;92.70
49236;DHT22;35067;48.134;8.378;2022-11-15T12:53:42;12.60;91.30
49236;DHT22;35067;48.134;8.378;2022-11-15T12:55:43;12.60;92.00
49236;DHT22;35067;48.134;8.378;2022-11-15T12:57:43;12.80;90.80
49236;DHT22;35067;48.134;8.378;2022-11-15T12:59:56;13.10;90.40
49236;DHT22;35067;48.134;8.378;2022-11-15T13:01:59;13.30;90.50
49236;DHT22;35067;48.134;8.378;2022-11-15T13:06:42;13.70;89.90
49236;DHT22;35067;48.134;8.378;2022-11-15T13:09:49;13.70;87.50
49236;DHT22;35067;48.134;8.378;2022-11-15T13:11:43;13.90;84.70
49236;DHT22;35067;48.134;8.378;2022-11-15T13:13:46;14.00;81.80
49236;DHT22;35067;48.134;8.378;2022-11-15T13:15:56;14.10;82.60
49236;DHT22;35067;48.134;8.378;2022-11-15T13:18:18;14.30;84.50
49236;DHT22;35067;48.134;8.378;2022-11-15T13:20:27;14.40;78.80
49236;DHT22;35067;48.134;8.378;2022-11-15T13:23:23;14.70;80.30
49236;DHT22;35067;48.134;8.378;2022-11-15T13:26:01;14.90;77.90
49236;DHT22;35067;48.134;8.378;2022-11-15T13:27:41;14.90;79.90
49236;DHT22;35067;48.134;8.378;2022-11-15T13:29:43;14.40;82.50
49236;DHT22;35067;48.134;8.378;2022-11-15T13:31:45;14.00;84.10
49236;DHT22;35067;48.134;8.378;2022-11-15T13:33:46;14.00;85.50
49236;DHT22;35067;48.134;8.378;2022-11-15T13:35:50;13.70;86.70
49236;DHT22;35067;48.134;8.378;2022-11-15T13:37:54;13.50;88.10
49236;DHT22;35067;48.134;8.378;2022-11-15T13:40:34;13.40;91.10
49236;DHT22;35067;48.134;8.378;2022-11-15T13:42:34;13.40;90.20
49236;DHT22;35067;48.134;8.378;2022-11-15T13:44:35;13.40;91.20
49236;DHT22;35067;48.134;8.378;2022-11-15T13:46:36;13.30;91.20
49236;DHT22;35067;48.134;8.378;2022-11-15T13:48:36;13.20;91.40
49236;DHT22;35067;48.134;8.378;2022-11-15T13:50:38;13.30;91.80
49236;DHT22;35067;48.134;8.378;2022-11-15T13:52:42;13.40;92.20
49236;DHT22;35067;48.134;8.378;2022-11-15T13:56:53;13.30;92.20
49236;DHT22;35067;48.134;8.378;2022-11-15T13:58:56;13.10;93.10
49236;DHT22;35067;48.134;8.378;2022-11-15T14:01:02;12.90;94.00
49236;DHT22;35067;48.134;8.378;2022-11-15T14:03:17;12.70;94.20
49236;DHT22;35067;48.134;8.378;2022-11-15T14:05:21;12.30;96.00
49236;DHT22;35067;48.134;8.378;2022-11-15T14:07:26;12.10;97.20
49236;DHT22;35067;48.134;8.378;2022-11-15T14:11:54;12.00;98.90
49236;DHT22;35067;48.134;8.378;2022-11-15T14:14:23;11.90;99.50
49236;DHT22;35067;48.134;8.378;2022-11-15T14:16:43;11.90;99.20
49236;DHT22;35067;48.134;8.378;2022-11-15T14:18:50;11.80;99.90
49236;DHT22;35067;48.134;8.378;2022-11-15T14:21:06;11.50;99.90
49236;DHT22;35067;48.134;8.378;2022-11-15T14:23:27;11.40;99.90
49236;DHT22;35067;48.134;8.378;2022-11-15T14:25:30;11.40;99.90
49236;DHT22;35067;48.134;8.378;2022-11-15T14:27:35;11.30;99.90
49236;DHT22;35067;48.134;8.378;2022-11-15T14:29:36;11.00;99.90
49236;DHT22;35067;48.134;8.378;2022-11-15T14:31:37;10.70;99.90
49236;DHT22;35067;48.134;8.378;2022-11-15T14:33:41;10.60;99.90
49236;DHT22;35067;48.134;8.378;2022-11-15T14:35:41;10.50;99.90
49236;DHT22;35067;48.134;8.378;2022-11-15T14:37:42;10.50;99.90
49236;DHT22;35067;48.134;8.378;2022-11-15T14:39:43;10.50;99.90
49236;DHT22;35067;48.134;8.378;2022-11-15T14:41:44;10.40;99.90
49236;DHT22;35067;48.134;8.378;2022-11-15T14:43:44;10.40;99.90
49236;DHT22;35067;48.134;8.378;2022-11-15T14:45:45;10.50;99.90
49236;DHT22;35067;48.134;8.378;2022-11-15T14:47:46;10.50;99.90
49236;DHT22;35067;48.134;8.378;2022-11-15T14:49:47;10.50;99.90
49236;DHT22;35067;48.134;8.378;2022-11-15T14:51:48;10.60;99.90
49236;DHT22;35067;48.134;8.378;2022-11-15T14:53:49;10.70;99.90